createdAt,value
2019-01-23T00:01:44.454Z,74.97
2019-01-23T00:06:51.582Z,75.53
2019-01-23T00:11:56.850Z,75.57
2019-01-23T00:17:02.058Z,76.20
2019-01-23T00:22:07.206Z,73.73
2019-01-23T00:27:12.332Z,76.33
2019-01-23T00:32:17.634Z,74.27
2019-01-23T00:37:23.554Z,73.47
2019-01-23T00:42:29.461Z,75.03
2019-01-23T00:47:34.594Z,70.40
2019-01-23T00:52:39.730Z,71.17
2019-01-23T00:57:44.914Z,81.03
2019-01-23T01:02:50.057Z,72.60
2019-01-23T01:07:55.374Z,70.10
2019-01-23T01:13:00.469Z,74.53
2019-01-23T01:18:05.962Z,69.50
2019-01-23T01:23:11.261Z,76.40
2019-01-23T01:28:19.578Z,67.40
2019-01-23T01:33:24.778Z,64.43
2019-01-23T01:38:29.866Z,68.33
2019-01-23T01:43:38.180Z,68.00
2019-01-23T01:48:43.732Z,68.90
2019-01-23T01:53:48.838Z,68.47
2019-01-23T01:58:53.992Z,68.50
2019-01-23T02:04:00.176Z,69.40
2019-01-23T02:09:08.630Z,70.73
2019-01-23T02:14:14.743Z,70.00
2019-01-23T02:19:19.948Z,75.73
2019-01-23T02:24:25.146Z,75.37
2019-01-23T02:29:30.268Z,76.27
2019-01-23T02:34:35.672Z,77.23
2019-01-23T02:39:40.970Z,73.07
2019-01-23T02:44:46.179Z,74.37
2019-01-23T02:49:51.591Z,77.60
2019-01-23T02:54:56.641Z,81.37
2019-01-23T03:00:01.666Z,82.70
2019-01-23T03:05:10.548Z,79.67
2019-01-23T03:10:18.059Z,65.00
2019-01-23T03:15:23.123Z,75.27
2019-01-23T03:20:30.685Z,80.67
2019-01-23T03:25:36.993Z,83.10
2019-01-23T03:30:44.117Z,82.87
2019-01-23T03:35:49.725Z,80.27
2019-01-23T03:40:57.524Z,76.57
2019-01-23T03:46:03.119Z,83.27
2019-01-23T03:51:09.007Z,78.67
2019-01-23T03:56:14.895Z,82.07
2019-01-23T04:01:20.683Z,82.60
2019-01-23T04:06:27.003Z,84.17
2019-01-23T04:11:32.813Z,80.97
2019-01-23T04:16:38.994Z,83.20
2019-01-23T04:21:55.179Z,77.57
2019-01-23T04:26:58.508Z,76.03
2019-01-23T04:32:04.947Z,85.27
2019-01-23T04:37:24.888Z,80.83
2019-01-23T04:42:45.903Z,78.87
2019-01-23T04:47:52.035Z,87.40
2019-01-23T04:53:17.339Z,92.63
2019-01-23T04:58:23.232Z,81.20
2019-01-23T05:03:44.448Z,83.90
2019-01-23T05:09:01.904Z,83.83
2019-01-23T05:14:12.282Z,82.17
2019-01-23T05:19:23.091Z,87.43
2019-01-23T05:24:30.535Z,85.50
2019-01-23T05:29:55.062Z,83.17
2019-01-23T05:35:02.995Z,86.90
2019-01-23T05:40:28.365Z,82.23
2019-01-23T05:45:33.790Z,82.77
2019-01-23T05:50:39.174Z,86.33
2019-01-23T05:55:49.338Z,83.57
2019-01-23T06:01:08.066Z,79.80
2019-01-23T06:06:29.776Z,80.57
2019-01-23T06:11:45.992Z,81.93
2019-01-23T06:16:51.699Z,82.30
2019-01-23T06:22:00.927Z,82.30
2019-01-23T06:27:19.474Z,77.53
2019-01-23T06:32:32.631Z,78.27
2019-01-23T06:37:38.139Z,77.47
2019-01-23T06:42:50.678Z,84.70
2019-01-23T06:48:02.880Z,79.63
2019-01-23T06:53:14.043Z,78.23
2019-01-23T06:58:15.715Z,79.87
2019-01-23T07:03:21.157Z,86.80
2019-01-23T07:08:28.577Z,82.27
2019-01-23T07:13:42.189Z,81.67
2019-01-23T07:18:47.492Z,82.17
2019-01-23T07:23:52.738Z,87.20
2019-01-23T07:28:58.049Z,91.47
2019-01-23T07:34:07.793Z,84.90
2019-01-23T07:39:14.587Z,87.97
2019-01-23T07:44:20.735Z,86.90
2019-01-23T07:49:25.913Z,85.87
2019-01-23T07:54:36.124Z,87.80
2019-01-23T07:59:41.392Z,88.57
2019-01-23T08:04:46.599Z,82.73
2019-01-23T08:09:51.749Z,83.07
2019-01-23T08:15:00.184Z,90.30
2019-01-23T08:20:07.445Z,88.87
2019-01-23T08:25:17.035Z,86.83
2019-01-23T08:30:25.494Z,80.20
2019-01-23T08:35:40.250Z,80.17
2019-01-23T08:40:45.534Z,83.57
2019-01-23T08:45:50.858Z,87.60
2019-01-23T08:50:56.313Z,78.73
2019-01-23T08:56:02.101Z,78.20
2019-01-23T09:01:08.001Z,80.20
2019-01-23T09:06:13.431Z,79.17
2019-01-23T09:11:18.753Z,77.30
2019-01-23T09:16:24.419Z,78.10
2019-01-23T09:21:32.475Z,74.10
2019-01-23T09:26:42.137Z,74.13
2019-01-23T09:32:47.433Z,68.30
2019-01-23T09:38:18.919Z,71.00
2019-01-23T09:43:52.474Z,75.70
2019-01-23T09:49:37.678Z,66.60
2019-01-23T09:54:54.247Z,65.43
2019-01-23T10:00:07.351Z,76.17
2019-01-23T10:05:13.736Z,71.97
2019-01-23T10:10:19.397Z,67.33
2019-01-23T10:16:13.032Z,66.83
2019-01-23T10:21:18.321Z,66.87
2019-01-23T10:26:23.634Z,59.23
2019-01-23T10:31:29.929Z,63.63
2019-01-23T10:36:37.205Z,58.20
2019-01-23T10:41:52.593Z,59.60
2019-01-23T10:46:58.996Z,64.77
2019-01-23T10:52:05.593Z,62.67
2019-01-23T10:57:11.464Z,59.23
2019-01-23T11:02:16.731Z,61.67
2019-01-23T11:07:27.113Z,57.07
2019-01-23T11:12:32.937Z,53.20
2019-01-23T11:17:38.238Z,60.83
2019-01-23T11:22:52.459Z,59.43
2019-01-23T11:27:59.596Z,53.53
2019-01-23T11:33:05.021Z,54.77
2019-01-23T11:38:10.712Z,54.97
2019-01-23T11:43:15.804Z,56.27
2019-01-23T11:48:20.921Z,54.50
2019-01-23T11:53:28.649Z,52.80
2019-01-23T11:58:35.452Z,55.67
2019-01-23T12:03:40.691Z,65.20
2019-01-23T12:08:46.297Z,62.50
2019-01-23T12:13:51.381Z,67.03
2019-01-23T12:18:56.382Z,59.43
2019-01-23T12:24:03.141Z,62.07
2019-01-23T12:29:08.196Z,61.30
2019-01-23T12:34:13.292Z,63.90
2019-01-23T12:39:22.249Z,62.10
2019-01-23T12:44:27.505Z,63.87
2019-01-23T12:49:36.896Z,62.27
2019-01-23T12:54:42.569Z,67.07
2019-01-23T12:59:48.395Z,69.87
2019-01-23T13:04:53.611Z,73.00
2019-01-23T13:10:00.999Z,70.93
2019-01-23T13:15:10.967Z,64.87
2019-01-23T13:20:21.707Z,67.43
2019-01-23T13:25:28.922Z,75.67
2019-01-23T13:30:35.413Z,77.77
2019-01-23T13:35:43.387Z,78.13
2019-01-23T13:40:48.657Z,76.33
2019-01-23T13:45:58.285Z,77.77
2019-01-23T13:51:04.577Z,77.53
2019-01-23T13:56:11.019Z,80.80
2019-01-23T14:01:19.707Z,82.63
2019-01-23T14:06:25.119Z,74.90
2019-01-23T14:11:41.846Z,82.23
2019-01-23T14:16:48.533Z,75.97
2019-01-23T14:21:59.540Z,69.77
2019-01-23T14:27:16.899Z,67.23
2019-01-23T14:32:22.099Z,70.17
2019-01-23T14:37:29.305Z,71.53
2019-01-23T14:42:39.799Z,72.13
2019-01-23T14:47:49.625Z,74.33
2019-01-23T14:52:55.635Z,72.13
2019-01-23T14:58:04.788Z,79.87
2019-01-23T15:03:24.081Z,83.37
2019-01-23T15:08:29.553Z,83.90
2019-01-23T15:13:40.080Z,82.50
2019-01-23T15:18:53.470Z,88.50
2019-01-23T15:24:18.019Z,92.30
2019-01-23T15:29:37.955Z,90.20
2019-01-23T15:34:47.291Z,87.50
2019-01-23T15:39:55.452Z,94.03
2019-01-23T15:45:01.318Z,94.20
2019-01-23T15:50:33.445Z,103.67
2019-01-23T15:56:09.097Z,96.03
2019-01-23T16:01:25.315Z,92.10
2019-01-23T16:06:32.625Z,99.30
2019-01-23T16:11:58.829Z,96.90
2019-01-23T16:17:23.536Z,101.47
2019-01-23T16:22:28.983Z,99.90
2019-01-23T16:27:35.782Z,96.87
2019-01-23T16:32:45.593Z,102.63
2019-01-23T16:38:11.584Z,97.13
2019-01-23T16:43:44.299Z,101.40
2019-01-23T16:48:56.357Z,97.30
2019-01-23T16:54:06.203Z,94.17
2019-01-23T16:59:15.954Z,93.90
2019-01-23T17:04:21.600Z,88.83
2019-01-23T17:09:28.402Z,89.37
2019-01-23T17:14:37.121Z,84.57
2019-01-23T17:19:53.652Z,90.80
2019-01-23T17:25:07.731Z,86.43
2019-01-23T17:30:27.358Z,80.93
2019-01-23T17:35:49.906Z,76.23
2019-01-23T17:41:01.426Z,76.67
2019-01-23T17:46:11.209Z,75.33
2019-01-23T17:51:22.582Z,75.87
2019-01-23T17:56:31.306Z,72.20
2019-01-23T18:01:36.905Z,73.50
2019-01-23T18:07:06.798Z,68.43
2019-01-23T18:12:15.025Z,67.37
2019-01-23T18:17:23.123Z,71.77
2019-01-23T18:22:32.236Z,68.10
2019-01-23T18:27:38.207Z,67.63
2019-01-23T18:32:44.566Z,68.83
2019-01-23T18:38:35.583Z,66.07
2019-01-23T18:44:39.793Z,69.67
2019-01-23T18:50:37.276Z,70.83
2019-01-23T18:56:01.425Z,72.97
2019-01-23T19:01:09.341Z,68.50
2019-01-23T19:06:26.229Z,74.80
2019-01-23T19:17:11.987Z,70.47
2019-01-23T19:22:21.945Z,75.87
2019-01-23T19:27:28.431Z,69.20
2019-01-23T19:32:49.425Z,72.17
2019-01-23T19:38:02.413Z,69.20
2019-01-23T19:43:08.339Z,66.27
2019-01-23T19:48:14.052Z,62.50
2019-01-23T19:53:19.503Z,63.13
2019-01-23T19:58:24.798Z,65.47
2019-01-23T20:03:30.014Z,61.23
2019-01-23T20:08:52.347Z,67.07
2019-01-23T20:14:16.139Z,66.47
2019-01-23T20:19:21.547Z,72.20
2019-01-23T20:24:28.061Z,68.77
2019-01-23T20:29:34.495Z,70.23
2019-01-23T20:34:43.081Z,71.87
2019-01-23T20:39:53.869Z,68.80
2019-01-23T20:44:59.097Z,67.63
2019-01-23T20:50:06.269Z,63.83
2019-01-23T20:55:11.396Z,72.07
2019-01-23T21:01:05.988Z,67.93
2019-01-23T21:12:39.651Z,73.70
2019-01-23T21:17:54.747Z,71.30
2019-01-23T21:23:07.356Z,69.33
2019-01-23T21:28:35.202Z,68.77
2019-01-23T21:34:07.927Z,74.43
2019-01-23T21:39:52.627Z,68.67
2019-01-23T21:45:02.441Z,68.27
2019-01-23T21:50:10.209Z,68.17
2019-01-23T21:55:21.479Z,72.27
2019-01-23T22:00:58.940Z,66.57
2019-01-23T22:06:04.723Z,67.97
2019-01-23T22:11:09.835Z,74.17
2019-01-23T22:16:17.702Z,73.73
2019-01-23T22:21:22.828Z,77.47
2019-01-23T22:26:29.384Z,77.13
2019-01-23T22:31:35.664Z,77.63
2019-01-23T22:36:40.736Z,78.33
2019-01-23T22:41:48.994Z,81.47
2019-01-23T22:46:54.095Z,79.20
2019-01-23T22:51:59.290Z,75.03
2019-01-23T22:57:04.352Z,77.83
2019-01-23T23:02:09.483Z,74.40
2019-01-23T23:07:14.548Z,77.17
2019-01-23T23:12:19.764Z,73.03
2019-01-23T23:17:24.816Z,74.43
2019-01-23T23:22:29.911Z,70.83
2019-01-23T23:27:39.354Z,70.70
2019-01-23T23:32:41.764Z,72.53
2019-01-23T23:37:46.935Z,73.03
2019-01-23T23:42:52.105Z,77.97
2019-01-23T23:47:57.384Z,74.63
2019-01-23T23:53:02.398Z,76.63
2019-01-23T23:58:08.593Z,70.63
